sensor_id;sensor_type;location;lat;lon;timestamp;pressure;altitude;pressure_sealevel;temperature;humidity
74524;BME280;63074;44.696;10.358;2023-05-16T00:01:01;99039.25;;;15.51;100.00
74524;BME280;63074;44.696;10.358;2023-05-16T00:03:28;99051.13;;;15.55;100.00
74524;BME280;63074;44.696;10.358;2023-05-16T00:05:55;99044.75;;;16.02;100.00
74524;BME280;63074;44.696;10.358;2023-05-16T00:08:22;99040.75;;;15.81;100.00
74524;BME280;63074;44.696;10.358;2023-05-16T00:10:49;99033.84;;;15.51;100.00
74524;BME280;63074;44.696;10.358;2023-05-16T00:13:15;99037.97;;;15.67;100.00
74524;BME280;63074;44.696;10.358;2023-05-16T00:15:47;99034.97;;;15.88;100.00
74524;BME280;63074;44.696;10.358;2023-05-16T00:18:13;99026.47;;;15.75;100.00
74524;BME280;63074;44.696;10.358;2023-05-16T00:20:42;99031.56;;;15.96;100.00
74524;BME280;63074;44.696;10.358;2023-05-16T00:23:08;99021.22;;;15.65;100.00
74524;BME280;63074;44.696;10.358;2023-05-16T00:25:35;99022.72;;;16.23;100.00
74524;BME280;63074;44.696;10.358;2023-05-16T00:28:01;99017.06;;;16.05;100.00
74524;BME280;63074;44.696;10.358;2023-05-16T00:30:27;99015.16;;;16.06;100.00
74524;BME280;63074;44.696;10.358;2023-05-16T00:32:54;99012.25;;;16.02;100.00
74524;BME280;63074;44.696;10.358;2023-05-16T00:35:21;99007.53;;;16.08;100.00
74524;BME280;63074;44.696;10.358;2023-05-16T00:37:50;99009.75;;;16.06;100.00
74524;BME280;63074;44.696;10.358;2023-05-16T00:40:16;99012.47;;;16.19;100.00
74524;BME280;63074;44.696;10.358;2023-05-16T00:42:43;99003.72;;;16.41;100.00
74524;BME280;63074;44.696;10.358;2023-05-16T00:45:10;99003.88;;;16.31;100.00
74524;BME280;63074;44.696;10.358;2023-05-16T00:47:36;98999.78;;;16.47;100.00
74524;BME280;63074;44.696;10.358;2023-05-16T00:50:03;98988.56;;;16.08;100.00
74524;BME280;63074;44.696;10.358;2023-05-16T00:52:31;98994.81;;;16.22;100.00
74524;BME280;63074;44.696;10.358;2023-05-16T00:54:58;98991.25;;;16.40;100.00
74524;BME280;63074;44.696;10.358;2023-05-16T00:57:25;98980.84;;;16.61;100.00
74524;BME280;63074;44.696;10.358;2023-05-16T00:59:52;98989.63;;;16.72;100.00
74524;BME280;63074;44.696;10.358;2023-05-16T01:02:18;98986.28;;;16.88;100.00
74524;BME280;63074;44.696;10.358;2023-05-16T01:04:45;98993.50;;;16.79;100.00
74524;BME280;63074;44.696;10.358;2023-05-16T01:07:13;98982.06;;;16.96;100.00
74524;BME280;63074;44.696;10.358;2023-05-16T01:09:40;98972.75;;;16.15;100.00
74524;BME280;63074;44.696;10.358;2023-05-16T01:12:28;98974.25;;;16.21;100.00
74524;BME280;63074;44.696;10.358;2023-05-16T01:17:44;98971.19;;;16.41;100.00
74524;BME280;63074;44.696;10.358;2023-05-16T01:28:07;98953.06;;;16.23;100.00
74524;BME280;63074;44.696;10.358;2023-05-16T01:30:38;98965.03;;;16.36;100.00
74524;BME280;63074;44.696;10.358;2023-05-16T01:33:06;98961.44;;;16.54;100.00
74524;BME280;63074;44.696;10.358;2023-05-16T01:35:32;98950.44;;;16.18;100.00
74524;BME280;63074;44.696;10.358;2023-05-16T01:38:09;98955.97;;;16.13;100.00
74524;BME280;63074;44.696;10.358;2023-05-16T01:40:58;98955.25;;;16.07;100.00
74524;BME280;63074;44.696;10.358;2023-05-16T01:43:41;98950.19;;;15.87;100.00
74524;BME280;63074;44.696;10.358;2023-05-16T01:46:11;98948.91;;;15.98;100.00
74524;BME280;63074;44.696;10.358;2023-05-16T01:48:51;98943.34;;;15.90;100.00
74524;BME280;63074;44.696;10.358;2023-05-16T01:51:20;98936.50;;;16.11;100.00
74524;BME280;63074;44.696;10.358;2023-05-16T01:53:49;98936.94;;;15.85;100.00
74524;BME280;63074;44.696;10.358;2023-05-16T01:56:17;98937.53;;;15.82;100.00
74524;BME280;63074;44.696;10.358;2023-05-16T01:58:44;98932.19;;;16.10;100.00
74524;BME280;63074;44.696;10.358;2023-05-16T02:01:13;98925.28;;;16.31;100.00
74524;BME280;63074;44.696;10.358;2023-05-16T02:03:39;98930.59;;;15.90;100.00
74524;BME280;63074;44.696;10.358;2023-05-16T02:06:06;98933.06;;;16.05;100.00
74524;BME280;63074;44.696;10.358;2023-05-16T02:08:34;98919.09;;;15.98;100.00
74524;BME280;63074;44.696;10.358;2023-05-16T02:11:01;98921.34;;;16.24;100.00
74524;BME280;63074;44.696;10.358;2023-05-16T02:13:28;98916.31;;;16.03;100.00
74524;BME280;63074;44.696;10.358;2023-05-16T02:15:54;98908.88;;;16.23;100.00
74524;BME280;63074;44.696;10.358;2023-05-16T02:18:20;98908.59;;;16.10;100.00
74524;BME280;63074;44.696;10.358;2023-05-16T02:20:48;98911.19;;;15.69;100.00
74524;BME280;63074;44.696;10.358;2023-05-16T02:23:14;98909.72;;;15.77;100.00
74524;BME280;63074;44.696;10.358;2023-05-16T02:25:41;98907.16;;;15.85;100.00
74524;BME280;63074;44.696;10.358;2023-05-16T02:28:07;98903.06;;;15.69;100.00
74524;BME280;63074;44.696;10.358;2023-05-16T02:30:33;98907.81;;;15.77;100.00
74524;BME280;63074;44.696;10.358;2023-05-16T02:32:59;98906.06;;;16.00;100.00
74524;BME280;63074;44.696;10.358;2023-05-16T02:35:25;98904.97;;;16.01;100.00
74524;BME280;63074;44.696;10.358;2023-05-16T02:37:51;98902.28;;;16.15;100.00
74524;BME280;63074;44.696;10.358;2023-05-16T02:40:18;98900.97;;;16.12;100.00
74524;BME280;63074;44.696;10.358;2023-05-16T02:42:44;98908.69;;;16.19;100.00
74524;BME280;63074;44.696;10.358;2023-05-16T02:45:10;98899.16;;;16.21;100.00
74524;BME280;63074;44.696;10.358;2023-05-16T02:47:37;98889.84;;;16.41;100.00
74524;BME280;63074;44.696;10.358;2023-05-16T02:50:03;98888.91;;;16.18;100.00
74524;BME280;63074;44.696;10.358;2023-05-16T02:52:29;98879.78;;;16.55;100.00
74524;BME280;63074;44.696;10.358;2023-05-16T02:54:55;98880.31;;;16.16;100.00
74524;BME280;63074;44.696;10.358;2023-05-16T02:57:22;98883.19;;;16.20;100.00
74524;BME280;63074;44.696;10.358;2023-05-16T02:59:49;98872.44;;;15.88;100.00
74524;BME280;63074;44.696;10.358;2023-05-16T03:02:15;98876.53;;;15.85;100.00
74524;BME280;63074;44.696;10.358;2023-05-16T03:04:42;98871.97;;;16.13;100.00
74524;BME280;63074;44.696;10.358;2023-05-16T03:07:08;98873.66;;;16.09;100.00
74524;BME280;63074;44.696;10.358;2023-05-16T03:09:34;98865.53;;;16.09;100.00
74524;BME280;63074;44.696;10.358;2023-05-16T03:12:00;98873.06;;;15.66;100.00
74524;BME280;63074;44.696;10.358;2023-05-16T03:14:26;98875.09;;;15.74;100.00
74524;BME280;63074;44.696;10.358;2023-05-16T03:16:53;98879.56;;;15.97;100.00
74524;BME280;63074;44.696;10.358;2023-05-16T03:19:19;98877.38;;;16.27;100.00
74524;BME280;63074;44.696;10.358;2023-05-16T03:21:45;98883.91;;;16.39;100.00
74524;BME280;63074;44.696;10.358;2023-05-16T03:24:11;98886.31;;;16.41;100.00
74524;BME280;63074;44.696;10.358;2023-05-16T03:26:37;98872.88;;;16.36;100.00
74524;BME280;63074;44.696;10.358;2023-05-16T03:29:04;98882.28;;;16.52;100.00
74524;BME280;63074;44.696;10.358;2023-05-16T03:31:30;98892.03;;;16.53;100.00
74524;BME280;63074;44.696;10.358;2023-05-16T03:33:56;98893.09;;;15.83;100.00
74524;BME280;63074;44.696;10.358;2023-05-16T03:36:23;98905.06;;;15.64;100.00
74524;BME280;63074;44.696;10.358;2023-05-16T03:38:49;98913.25;;;15.77;100.00
74524;BME280;63074;44.696;10.358;2023-05-16T03:41:15;98917.09;;;15.58;100.00
74524;BME280;63074;44.696;10.358;2023-05-16T03:43:42;98913.28;;;15.59;100.00
74524;BME280;63074;44.696;10.358;2023-05-16T03:46:08;98915.31;;;15.48;100.00
74524;BME280;63074;44.696;10.358;2023-05-16T03:48:35;98912.38;;;15.63;100.00
74524;BME280;63074;44.696;10.358;2023-05-16T03:51:01;98907.25;;;15.62;100.00
74524;BME280;63074;44.696;10.358;2023-05-16T03:53:27;98913.00;;;16.06;100.00
74524;BME280;63074;44.696;10.358;2023-05-16T03:55:53;98905.03;;;15.82;100.00
74524;BME280;63074;44.696;10.358;2023-05-16T03:58:20;98906.22;;;15.76;100.00
74524;BME280;63074;44.696;10.358;2023-05-16T04:00:46;98909.09;;;15.66;100.00
74524;BME280;63074;44.696;10.358;2023-05-16T04:03:12;98915.72;;;15.74;100.00
74524;BME280;63074;44.696;10.358;2023-05-16T04:05:38;98922.56;;;15.52;100.00
74524;BME280;63074;44.696;10.358;2023-05-16T04:08:06;98928.34;;;15.46;100.00
74524;BME280;63074;44.696;10.358;2023-05-16T04:10:33;98935.28;;;15.52;100.00
74524;BME280;63074;44.696;10.358;2023-05-16T04:12:59;98928.72;;;15.58;100.00
74524;BME280;63074;44.696;10.358;2023-05-16T04:15:25;98939.25;;;15.41;100.00
74524;BME280;63074;44.696;10.358;2023-05-16T04:17:51;98946.63;;;15.35;100.00
74524;BME280;63074;44.696;10.358;2023-05-16T04:20:17;98954.09;;;15.43;100.00
74524;BME280;63074;44.696;10.358;2023-05-16T04:22:45;98953.22;;;15.48;100.00
74524;BME280;63074;44.696;10.358;2023-05-16T04:25:11;98946.75;;;15.81;100.00
74524;BME280;63074;44.696;10.358;2023-05-16T04:27:39;98951.50;;;15.57;100.00
74524;BME280;63074;44.696;10.358;2023-05-16T04:30:06;98942.81;;;16.20;100.00
74524;BME280;63074;44.696;10.358;2023-05-16T04:32:32;98949.28;;;16.51;100.00
74524;BME280;63074;44.696;10.358;2023-05-16T04:34:59;98950.69;;;16.49;100.00
74524;BME280;63074;44.696;10.358;2023-05-16T04:37:26;98944.25;;;16.59;100.00
74524;BME280;63074;44.696;10.358;2023-05-16T04:39:52;98941.91;;;16.11;100.00
74524;BME280;63074;44.696;10.358;2023-05-16T04:42:19;98939.41;;;16.28;100.00
74524;BME280;63074;44.696;10.358;2023-05-16T04:44:45;98931.34;;;15.96;100.00
74524;BME280;63074;44.696;10.358;2023-05-16T04:47:14;98936.00;;;16.23;100.00
74524;BME280;63074;44.696;10.358;2023-05-16T04:49:40;98954.09;;;15.81;100.00
74524;BME280;63074;44.696;10.358;2023-05-16T04:52:06;98965.78;;;15.76;100.00
74524;BME280;63074;44.696;10.358;2023-05-16T04:54:33;98963.03;;;15.63;100.00
74524;BME280;63074;44.696;10.358;2023-05-16T04:56:59;98965.16;;;15.66;100.00
74524;BME280;63074;44.696;10.358;2023-05-16T04:59:26;98965.94;;;15.47;100.00
74524;BME280;63074;44.696;10.358;2023-05-16T05:01:52;98976.41;;;15.73;100.00
74524;BME280;63074;44.696;10.358;2023-05-16T05:04:19;98974.88;;;15.67;100.00
74524;BME280;63074;44.696;10.358;2023-05-16T05:06:45;98980.94;;;15.40;100.00
74524;BME280;63074;44.696;10.358;2023-05-16T05:09:11;98984.81;;;15.52;100.00
74524;BME280;63074;44.696;10.358;2023-05-16T05:11:38;98971.84;;;15.31;100.00
74524;BME280;63074;44.696;10.358;2023-05-16T05:14:04;98993.44;;;15.36;100.00
74524;BME280;63074;44.696;10.358;2023-05-16T05:16:30;98982.69;;;15.31;100.00
74524;BME280;63074;44.696;10.358;2023-05-16T05:18:56;98994.38;;;15.07;100.00
74524;BME280;63074;44.696;10.358;2023-05-16T05:21:23;99005.66;;;15.14;100.00
74524;BME280;63074;44.696;10.358;2023-05-16T05:23:50;98995.78;;;14.81;100.00
74524;BME280;63074;44.696;10.358;2023-05-16T05:26:17;99004.44;;;15.02;100.00
74524;BME280;63074;44.696;10.358;2023-05-16T05:28:43;99017.59;;;14.66;100.00
74524;BME280;63074;44.696;10.358;2023-05-16T05:31:09;99019.81;;;14.82;100.00
74524;BME280;63074;44.696;10.358;2023-05-16T05:33:36;99014.59;;;14.43;100.00
74524;BME280;63074;44.696;10.358;2023-05-16T05:36:02;99016.84;;;14.84;100.00
74524;BME280;63074;44.696;10.358;2023-05-16T05:38:28;99016.34;;;14.53;100.00
74524;BME280;63074;44.696;10.358;2023-05-16T05:40:54;99026.25;;;14.34;100.00
74524;BME280;63074;44.696;10.358;2023-05-16T05:43:21;99031.94;;;14.32;100.00
74524;BME280;63074;44.696;10.358;2023-05-16T05:45:48;99026.84;;;14.83;100.00
74524;BME280;63074;44.696;10.358;2023-05-16T05:48:14;99020.44;;;14.16;100.00
74524;BME280;63074;44.696;10.358;2023-05-16T05:50:40;99020.81;;;14.10;100.00
74524;BME280;63074;44.696;10.358;2023-05-16T05:53:06;99034.91;;;14.02;100.00
74524;BME280;63074;44.696;10.358;2023-05-16T05:55:33;99042.50;;;14.63;100.00
74524;BME280;63074;44.696;10.358;2023-05-16T05:57:59;99022.75;;;14.33;100.00
74524;BME280;63074;44.696;10.358;2023-05-16T06:00:25;99027.66;;;14.60;100.00
74524;BME280;63074;44.696;10.358;2023-05-16T06:02:53;99031.03;;;14.13;100.00
74524;BME280;63074;44.696;10.358;2023-05-16T06:05:19;99037.91;;;14.29;100.00
74524;BME280;63074;44.696;10.358;2023-05-16T06:07:45;99021.09;;;14.08;100.00
74524;BME280;63074;44.696;10.358;2023-05-16T06:10:11;99042.19;;;14.35;100.00
74524;BME280;63074;44.696;10.358;2023-05-16T06:12:37;99045.16;;;14.68;100.00
74524;BME280;63074;44.696;10.358;2023-05-16T06:15:04;99046.06;;;13.90;100.00
74524;BME280;63074;44.696;10.358;2023-05-16T06:17:31;99053.06;;;13.91;100.00
74524;BME280;63074;44.696;10.358;2023-05-16T06:19:57;99048.97;;;13.99;100.00
74524;BME280;63074;44.696;10.358;2023-05-16T06:22:23;99042.78;;;13.93;100.00
74524;BME280;63074;44.696;10.358;2023-05-16T06:24:49;99042.00;;;13.93;100.00
74524;BME280;63074;44.696;10.358;2023-05-16T06:27:16;99051.19;;;14.26;100.00
74524;BME280;63074;44.696;10.358;2023-05-16T06:29:42;99039.31;;;14.22;100.00
74524;BME280;63074;44.696;10.358;2023-05-16T06:32:08;99031.41;;;14.30;100.00
74524;BME280;63074;44.696;10.358;2023-05-16T06:34:34;99029.72;;;14.10;100.00
74524;BME280;63074;44.696;10.358;2023-05-16T06:37:02;99032.28;;;13.92;100.00
74524;BME280;63074;44.696;10.358;2023-05-16T06:39:29;99016.06;;;14.55;100.00
74524;BME280;63074;44.696;10.358;2023-05-16T06:41:55;99009.00;;;14.59;100.00
74524;BME280;63074;44.696;10.358;2023-05-16T06:44:22;99008.78;;;14.55;100.00
74524;BME280;63074;44.696;10.358;2023-05-16T06:46:50;99000.81;;;14.40;100.00
74524;BME280;63074;44.696;10.358;2023-05-16T06:49:17;99000.88;;;14.30;100.00
74524;BME280;63074;44.696;10.358;2023-05-16T06:51:43;99013.41;;;14.49;100.00
74524;BME280;63074;44.696;10.358;2023-05-16T06:54:09;99001.00;;;14.48;100.00
74524;BME280;63074;44.696;10.358;2023-05-16T06:56:35;99011.38;;;14.41;100.00
74524;BME280;63074;44.696;10.358;2023-05-16T06:59:02;99029.63;;;14.49;100.00
74524;BME280;63074;44.696;10.358;2023-05-16T07:01:28;99028.16;;;14.33;100.00
74524;BME280;63074;44.696;10.358;2023-05-16T07:03:54;99029.00;;;14.29;100.00
74524;BME280;63074;44.696;10.358;2023-05-16T07:06:20;99025.81;;;14.22;100.00
74524;BME280;63074;44.696;10.358;2023-05-16T07:08:47;99143.88;;;18.24;100.00
74524;BME280;63074;44.696;10.358;2023-05-16T07:11:13;99110.56;;;14.36;100.00
74524;BME280;63074;44.696;10.358;2023-05-16T07:13:39;99128.63;;;14.74;100.00
74524;BME280;63074;44.696;10.358;2023-05-16T07:16:05;99145.44;;;14.71;100.00
74524;BME280;63074;44.696;10.358;2023-05-16T07:18:33;99164.16;;;14.63;100.00
74524;BME280;63074;44.696;10.358;2023-05-16T07:20:59;99159.03;;;14.61;100.00
74524;BME280;63074;44.696;10.358;2023-05-16T07:23:26;99096.66;;;14.81;100.00
74524;BME280;63074;44.696;10.358;2023-05-16T07:25:52;99047.91;;;14.86;100.00
74524;BME280;63074;44.696;10.358;2023-05-16T07:28:18;99035.47;;;14.85;100.00
74524;BME280;63074;44.696;10.358;2023-05-16T07:30:44;99022.59;;;14.77;100.00
74524;BME280;63074;44.696;10.358;2023-05-16T07:33:11;99013.22;;;14.94;100.00
74524;BME280;63074;44.696;10.358;2023-05-16T07:35:37;99006.91;;;15.41;100.00
74524;BME280;63074;44.696;10.358;2023-05-16T07:38:04;99001.50;;;15.22;100.00
74524;BME280;63074;44.696;10.358;2023-05-16T07:40:30;98997.88;;;15.08;100.00
74524;BME280;63074;44.696;10.358;2023-05-16T07:43:00;98993.41;;;14.98;100.00
74524;BME280;63074;44.696;10.358;2023-05-16T07:45:27;98988.69;;;14.85;100.00
74524;BME280;63074;44.696;10.358;2023-05-16T07:47:53;99000.25;;;14.91;100.00
74524;BME280;63074;44.696;10.358;2023-05-16T07:50:20;99000.28;;;15.09;100.00
74524;BME280;63074;44.696;10.358;2023-05-16T07:52:46;98996.94;;;15.17;100.00
74524;BME280;63074;44.696;10.358;2023-05-16T07:55:12;98993.94;;;15.19;100.00
74524;BME280;63074;44.696;10.358;2023-05-16T07:57:38;98980.13;;;15.39;100.00
74524;BME280;63074;44.696;10.358;2023-05-16T08:00:05;98981.59;;;15.69;100.00
74524;BME280;63074;44.696;10.358;2023-05-16T08:02:32;98989.50;;;15.28;100.00
74524;BME280;63074;44.696;10.358;2023-05-16T08:04:58;98996.75;;;15.70;100.00
74524;BME280;63074;44.696;10.358;2023-05-16T08:07:25;99007.28;;;15.53;100.00
74524;BME280;63074;44.696;10.358;2023-05-16T08:09:51;99018.09;;;15.34;100.00
74524;BME280;63074;44.696;10.358;2023-05-16T08:12:17;99017.69;;;15.03;100.00
74524;BME280;63074;44.696;10.358;2023-05-16T08:14:44;99032.00;;;15.04;100.00
74524;BME280;63074;44.696;10.358;2023-05-16T08:17:10;99021.03;;;15.38;100.00
74524;BME280;63074;44.696;10.358;2023-05-16T08:19:36;99004.59;;;15.53;100.00
74524;BME280;63074;44.696;10.358;2023-05-16T08:22:02;98991.13;;;15.48;100.00
74524;BME280;63074;44.696;10.358;2023-05-16T08:24:28;98981.97;;;15.44;100.00
74524;BME280;63074;44.696;10.358;2023-05-16T08:26:54;98982.34;;;15.75;100.00
74524;BME280;63074;44.696;10.358;2023-05-16T08:29:20;98974.28;;;15.51;100.00
74524;BME280;63074;44.696;10.358;2023-05-16T08:31:47;98982.94;;;15.72;100.00
74524;BME280;63074;44.696;10.358;2023-05-16T08:34:13;98985.59;;;15.58;100.00
74524;BME280;63074;44.696;10.358;2023-05-16T08:36:39;99188.28;;;15.41;100.00
74524;BME280;63074;44.696;10.358;2023-05-16T08:39:05;99135.75;;;15.66;100.00
74524;BME280;63074;44.696;10.358;2023-05-16T08:41:32;99061.00;;;15.46;100.00
74524;BME280;63074;44.696;10.358;2023-05-16T08:43:59;99038.06;;;15.19;100.00
74524;BME280;63074;44.696;10.358;2023-05-16T08:46:25;99094.84;;;15.67;100.00
74524;BME280;63074;44.696;10.358;2023-05-16T08:48:53;99065.88;;;16.38;100.00
74524;BME280;63074;44.696;10.358;2023-05-16T08:51:24;99052.22;;;15.92;100.00
74524;BME280;63074;44.696;10.358;2023-05-16T08:54:05;99048.16;;;15.57;100.00
74524;BME280;63074;44.696;10.358;2023-05-16T08:56:33;99046.94;;;15.44;100.00
74524;BME280;63074;44.696;10.358;2023-05-16T08:59:01;99047.88;;;15.34;100.00
74524;BME280;63074;44.696;10.358;2023-05-16T09:01:28;99173.44;;;16.94;100.00
74524;BME280;63074;44.696;10.358;2023-05-16T09:03:55;99175.88;;;16.58;100.00
74524;BME280;63074;44.696;10.358;2023-05-16T09:06:21;99194.44;;;16.50;100.00
74524;BME280;63074;44.696;10.358;2023-05-16T09:08:47;99131.91;;;16.93;100.00
74524;BME280;63074;44.696;10.358;2023-05-16T09:11:14;99013.69;;;16.60;100.00
74524;BME280;63074;44.696;10.358;2023-05-16T09:13:40;98979.13;;;15.73;100.00
74524;BME280;63074;44.696;10.358;2023-05-16T09:16:13;98978.31;;;15.53;100.00
74524;BME280;63074;44.696;10.358;2023-05-16T09:18:43;98986.94;;;15.74;100.00
74524;BME280;63074;44.696;10.358;2023-05-16T09:21:11;98985.00;;;15.94;100.00
74524;BME280;63074;44.696;10.358;2023-05-16T09:23:37;98989.00;;;16.15;100.00
74524;BME280;63074;44.696;10.358;2023-05-16T09:26:05;98987.72;;;16.26;100.00
74524;BME280;63074;44.696;10.358;2023-05-16T09:28:33;98990.94;;;15.96;100.00
74524;BME280;63074;44.696;10.358;2023-05-16T09:30:59;98998.63;;;16.07;100.00
74524;BME280;63074;44.696;10.358;2023-05-16T09:33:27;99009.38;;;16.12;100.00
74524;BME280;63074;44.696;10.358;2023-05-16T09:36:03;99014.38;;;16.05;100.00
74524;BME280;63074;44.696;10.358;2023-05-16T09:38:29;98997.97;;;15.97;100.00
74524;BME280;63074;44.696;10.358;2023-05-16T09:40:55;99002.59;;;15.96;100.00
74524;BME280;63074;44.696;10.358;2023-05-16T09:43:25;99001.09;;;16.04;100.00
74524;BME280;63074;44.696;10.358;2023-05-16T09:45:52;98997.31;;;16.18;100.00
74524;BME280;63074;44.696;10.358;2023-05-16T09:48:19;98987.19;;;16.70;100.00
74524;BME280;63074;44.696;10.358;2023-05-16T09:50:52;99000.25;;;16.22;100.00
74524;BME280;63074;44.696;10.358;2023-05-16T09:53:30;98993.22;;;15.88;100.00
74524;BME280;63074;44.696;10.358;2023-05-16T09:56:07;99000.97;;;15.95;100.00
74524;BME280;63074;44.696;10.358;2023-05-16T09:58:36;99000.34;;;15.84;100.00
74524;BME280;63074;44.696;10.358;2023-05-16T10:01:03;99001.00;;;15.76;100.00
74524;BME280;63074;44.696;10.358;2023-05-16T10:03:31;99004.22;;;15.78;100.00
74524;BME280;63074;44.696;10.358;2023-05-16T10:05:57;99004.16;;;15.83;100.00
74524;BME280;63074;44.696;10.358;2023-05-16T10:08:25;99015.06;;;15.60;100.00
74524;BME280;63074;44.696;10.358;2023-05-16T10:10:53;99008.38;;;15.52;100.00
74524;BME280;63074;44.696;10.358;2023-05-16T10:13:33;99014.09;;;15.69;100.00
74524;BME280;63074;44.696;10.358;2023-05-16T10:16:11;99009.06;;;15.81;100.00
74524;BME280;63074;44.696;10.358;2023-05-16T10:18:38;99004.69;;;15.99;100.00
74524;BME280;63074;44.696;10.358;2023-05-16T10:21:10;98996.41;;;15.77;100.00
74524;BME280;63074;44.696;10.358;2023-05-16T10:23:41;98996.06;;;15.97;100.00
74524;BME280;63074;44.696;10.358;2023-05-16T10:26:08;99006.56;;;16.17;100.00
74524;BME280;63074;44.696;10.358;2023-05-16T10:28:36;98995.91;;;16.07;100.00
74524;BME280;63074;44.696;10.358;2023-05-16T10:31:06;99001.69;;;16.33;100.00
74524;BME280;63074;44.696;10.358;2023-05-16T10:33:32;98999.75;;;16.66;100.00
74524;BME280;63074;44.696;10.358;2023-05-16T10:36:00;98996.22;;;16.79;100.00
74524;BME280;63074;44.696;10.358;2023-05-16T10:38:29;98999.66;;;16.71;100.00
74524;BME280;63074;44.696;10.358;2023-05-16T10:40:58;98993.19;;;17.08;100.00
74524;BME280;63074;44.696;10.358;2023-05-16T10:43:26;99006.69;;;16.86;100.00
74524;BME280;63074;44.696;10.358;2023-05-16T10:46:08;99011.00;;;16.87;100.00
74524;BME280;63074;44.696;10.358;2023-05-16T10:48:39;98991.72;;;16.29;100.00
74524;BME280;63074;44.696;10.358;2023-05-16T10:51:32;98998.19;;;16.46;100.00
74524;BME280;63074;44.696;10.358;2023-05-16T10:54:10;99003.75;;;16.23;100.00
74524;BME280;63074;44.696;10.358;2023-05-16T10:56:39;99003.38;;;16.29;100.00
74524;BME280;63074;44.696;10.358;2023-05-16T10:59:22;99000.31;;;16.63;100.00
74524;BME280;63074;44.696;10.358;2023-05-16T11:01:54;98997.28;;;16.37;100.00
74524;BME280;63074;44.696;10.358;2023-05-16T11:04:21;98998.41;;;16.17;100.00
74524;BME280;63074;44.696;10.358;2023-05-16T11:06:51;98995.13;;;16.20;100.00
74524;BME280;63074;44.696;10.358;2023-05-16T11:09:20;99001.69;;;16.33;100.00
74524;BME280;63074;44.696;10.358;2023-05-16T11:12:00;98994.59;;;16.18;100.00
74524;BME280;63074;44.696;10.358;2023-05-16T11:14:34;99000.69;;;15.97;100.00
74524;BME280;63074;44.696;10.358;2023-05-16T11:17:21;98983.22;;;15.70;100.00
74524;BME280;63074;44.696;10.358;2023-05-16T11:19:55;98977.44;;;15.77;100.00
74524;BME280;63074;44.696;10.358;2023-05-16T11:22:25;98983.81;;;15.86;100.00
74524;BME280;63074;44.696;10.358;2023-05-16T11:30:18;98981.09;;;15.67;100.00
74524;BME280;63074;44.696;10.358;2023-05-16T11:32:47;98976.25;;;15.64;100.00
74524;BME280;63074;44.696;10.358;2023-05-16T11:35:16;98990.47;;;16.07;100.00
74524;BME280;63074;44.696;10.358;2023-05-16T11:37:43;98990.06;;;16.00;100.00
74524;BME280;63074;44.696;10.358;2023-05-16T11:40:12;98982.59;;;16.25;100.00
74524;BME280;63074;44.696;10.358;2023-05-16T11:42:43;98987.78;;;15.88;100.00
74524;BME280;63074;44.696;10.358;2023-05-16T11:45:18;98989.69;;;16.07;100.00
74524;BME280;63074;44.696;10.358;2023-05-16T11:47:46;98992.91;;;16.23;100.00
74524;BME280;63074;44.696;10.358;2023-05-16T11:50:15;98992.38;;;16.53;100.00
74524;BME280;63074;44.696;10.358;2023-05-16T11:52:47;98986.69;;;16.22;100.00
74524;BME280;63074;44.696;10.358;2023-05-16T11:55:16;98989.06;;;16.56;100.00
74524;BME280;63074;44.696;10.358;2023-05-16T11:57:43;98986.44;;;16.51;100.00
74524;BME280;63074;44.696;10.358;2023-05-16T12:00:15;98991.06;;;16.50;100.00
74524;BME280;63074;44.696;10.358;2023-05-16T12:02:44;98993.13;;;16.26;100.00
74524;BME280;63074;44.696;10.358;2023-05-16T12:05:16;98985.75;;;16.45;100.00
74524;BME280;63074;44.696;10.358;2023-05-16T12:07:43;99001.97;;;16.32;100.00
74524;BME280;63074;44.696;10.358;2023-05-16T12:10:14;99000.66;;;16.29;100.00
74524;BME280;63074;44.696;10.358;2023-05-16T12:12:51;99011.34;;;16.39;100.00
74524;BME280;63074;44.696;10.358;2023-05-16T12:15:18;99006.91;;;16.30;100.00
74524;BME280;63074;44.696;10.358;2023-05-16T12:17:45;99010.13;;;16.32;100.00
74524;BME280;63074;44.696;10.358;2023-05-16T12:20:12;99009.69;;;16.25;100.00
74524;BME280;63074;44.696;10.358;2023-05-16T12:22:42;99016.69;;;16.44;100.00
74524;BME280;63074;44.696;10.358;2023-05-16T12:27:46;99004.56;;;16.23;100.00
74524;BME280;63074;44.696;10.358;2023-05-16T12:30:15;99002.06;;;16.73;100.00
74524;BME280;63074;44.696;10.358;2023-05-16T12:32:41;98987.59;;;16.64;100.00
74524;BME280;63074;44.696;10.358;2023-05-16T12:35:11;98994.91;;;16.17;100.00
74524;BME280;63074;44.696;10.358;2023-05-16T12:37:38;98994.16;;;15.98;100.00
74524;BME280;63074;44.696;10.358;2023-05-16T12:40:04;99002.94;;;16.22;100.00
74524;BME280;63074;44.696;10.358;2023-05-16T12:42:31;98997.75;;;16.26;100.00
74524;BME280;63074;44.696;10.358;2023-05-16T12:44:57;99007.75;;;16.11;100.00
74524;BME280;63074;44.696;10.358;2023-05-16T12:47:33;99000.28;;;16.36;100.00
74524;BME280;63074;44.696;10.358;2023-05-16T12:50:01;98998.72;;;16.62;100.00
74524;BME280;63074;44.696;10.358;2023-05-16T12:52:28;99007.53;;;16.54;100.00
74524;BME280;63074;44.696;10.358;2023-05-16T12:54:54;98996.38;;;16.55;100.00
74524;BME280;63074;44.696;10.358;2023-05-16T12:57:20;99001.06;;;16.82;100.00
74524;BME280;63074;44.696;10.358;2023-05-16T12:59:47;99008.94;;;16.51;100.00
74524;BME280;63074;44.696;10.358;2023-05-16T13:02:13;99005.38;;;16.24;100.00